createdAt,value
2022-08-09T00:00:21.710Z,101202.50
2022-08-09T00:02:51.527Z,101205.72
2022-08-09T00:06:17.780Z,101205.78
2022-08-09T00:08:11.095Z,101196.19
2022-08-09T00:10:40.740Z,101201.88
2022-08-09T00:13:16.879Z,101198.56
2022-08-09T00:15:59.750Z,101202.94
2022-08-09T00:18:34.866Z,101202.34
2022-08-09T00:21:08.704Z,101202.72
2022-08-09T00:23:56.447Z,101205.91
2022-08-09T00:26:29.759Z,101205.88
2022-08-09T00:29:02.121Z,101200.56
2022-08-09T00:31:57.523Z,101201.06
2022-08-09T00:34:19.576Z,101205.34
2022-08-09T00:36:48.776Z,101196.38
2022-08-09T00:40:08.860Z,101195.88
2022-08-09T00:44:14.658Z,101185.03
2022-08-09T00:44:50.653Z,101194.72
2022-08-09T00:47:21.302Z,101184.91
2022-08-09T00:49:54.623Z,101192.88
2022-08-09T00:52:30.060Z,101194.88
2022-08-09T00:55:02.257Z,101193.88
2022-08-09T00:57:34.887Z,101200.16
2022-08-09T01:00:21.207Z,101196.84
2022-08-09T01:03:05.330Z,101196.47
2022-08-09T01:05:57.627Z,101196.13
2022-08-09T01:09:16.846Z,101189.56
2022-08-09T01:12:01.572Z,101191.53
2022-08-09T01:14:54.303Z,101197.56
2022-08-09T01:17:47.837Z,101204.19
2022-08-09T01:20:35.371Z,101192.13
2022-08-09T01:24:01.964Z,101199.25
2022-08-09T01:26:55.876Z,101202.13
2022-08-09T01:29:41.135Z,101199.13
2022-08-09T01:32:39.189Z,101206.25
2022-08-09T01:35:39.547Z,101209.44
2022-08-09T01:38:27.856Z,101204.44
2022-08-09T01:41:06.519Z,101204.09
2022-08-09T01:43:50.746Z,101208.91
2022-08-09T01:46:28.212Z,101208.94
2022-08-09T01:49:10.124Z,101208.59
2022-08-09T01:51:42.729Z,101204.91
2022-08-09T01:54:14.187Z,101191.13
2022-08-09T01:56:51.469Z,101208.41
2022-08-09T01:59:21.501Z,101195.97
2022-08-09T02:01:59.259Z,101205.94
2022-08-09T02:04:29.956Z,101203.28
2022-08-09T02:07:08.697Z,101206.97
2022-08-09T02:10:04.572Z,101209.44
2022-08-09T02:12:34.981Z,101218.31
2022-08-09T02:15:06.161Z,101218.50
2022-08-09T02:18:00.425Z,101218.31
2022-08-09T02:20:32.553Z,101227.19
2022-08-09T02:23:16.897Z,101233.34
2022-08-09T02:25:52.918Z,101235.97
2022-08-09T02:28:44.144Z,101238.13
2022-08-09T02:31:22.714Z,101243.25
2022-08-09T02:34:06.429Z,101244.81
2022-08-09T02:36:42.231Z,101238.84
2022-08-09T02:39:39.668Z,101243.16
2022-08-09T02:42:19.162Z,101243.34
2022-08-09T02:44:59.154Z,101239.84
2022-08-09T02:47:33.908Z,101237.03
2022-08-09T02:50:24.308Z,101241.81
2022-08-09T02:53:26.416Z,101235.03
2022-08-09T02:55:58.745Z,101243.00
2022-08-09T02:58:35.934Z,101233.06
2022-08-09T03:01:07.806Z,101231.72
2022-08-09T03:04:17.160Z,101226.41
2022-08-09T03:06:27.291Z,101229.25
2022-08-09T03:08:56.103Z,101228.06
2022-08-09T03:12:04.281Z,101226.44
2022-08-09T03:14:13.110Z,101228.41
2022-08-09T03:16:45.286Z,101224.78
2022-08-09T03:19:59.278Z,101227.09
2022-08-09T03:22:12.484Z,101221.94
2022-08-09T03:25:03.328Z,101220.78
2022-08-09T03:27:45.470Z,101222.97
2022-08-09T03:30:30.220Z,101226.28
2022-08-09T03:33:05.531Z,101226.09
2022-08-09T03:36:13.844Z,101222.78
2022-08-09T03:38:28.761Z,101229.75
2022-08-09T03:40:56.022Z,101233.91
2022-08-09T03:43:22.893Z,101227.44
2022-08-09T03:46:03.912Z,101236.72
2022-08-09T03:48:42.934Z,101241.00
2022-08-09T03:51:56.613Z,101241.84
2022-08-09T03:54:10.981Z,101247.31
2022-08-09T03:56:41.134Z,101246.31
2022-08-09T03:59:20.854Z,101257.41
2022-08-09T04:01:56.737Z,101254.09
2022-08-09T04:04:36.030Z,101257.28
2022-08-09T04:07:06.447Z,101251.97
2022-08-09T04:09:44.392Z,101258.19
2022-08-09T04:12:30.607Z,101259.34
2022-08-09T04:15:02.174Z,101261.00
2022-08-09T04:17:42.431Z,101268.84
2022-08-09T04:20:13.069Z,101261.56
2022-08-09T04:22:44.202Z,101264.56
2022-08-09T04:25:13.202Z,101267.72
2022-08-09T04:27:46.763Z,101264.88
2022-08-09T04:30:20.884Z,101267.91
2022-08-09T04:32:51.677Z,101278.56
2022-08-09T04:35:21.861Z,101278.19
2022-08-09T04:37:49.960Z,101279.69
2022-08-09T04:40:19.532Z,101284.69
2022-08-09T04:42:56.926Z,101284.69
2022-08-09T04:45:24.312Z,101284.69
2022-08-09T04:48:04.201Z,101292.84
2022-08-09T04:50:37.606Z,101295.78
2022-08-09T04:53:13.463Z,101296.28
2022-08-09T04:55:58.916Z,101297.75
2022-08-09T04:58:27.998Z,101298.38
2022-08-09T05:00:57.535Z,101308.97
2022-08-09T05:03:41.176Z,101308.56
2022-08-09T05:06:27.184Z,101310.97
2022-08-09T05:09:00.882Z,101314.53
2022-08-09T05:11:30.623Z,101319.78
2022-08-09T05:13:59.726Z,101330.69
2022-08-09T05:16:31.808Z,101329.47
2022-08-09T05:19:00.117Z,101327.66
2022-08-09T05:21:30.470Z,101320.22
2022-08-09T05:24:13.732Z,101324.84
2022-08-09T05:26:45.758Z,101326.25
2022-08-09T05:29:23.904Z,101323.28
2022-08-09T05:31:58.370Z,101329.75
2022-08-09T05:34:32.374Z,101328.56
2022-08-09T05:37:06.602Z,101324.69
2022-08-09T05:39:43.911Z,101329.53
2022-08-09T05:42:17.393Z,101334.16
2022-08-09T05:45:00.081Z,101331.16
2022-08-09T05:47:30.198Z,101351.81
2022-08-09T05:50:30.149Z,101351.19
2022-08-09T05:52:53.628Z,101352.41
2022-08-09T05:55:23.352Z,101357.84
2022-08-09T05:57:56.800Z,101352.84
2022-08-09T06:00:32.861Z,101356.41
2022-08-09T06:03:03.373Z,101356.34
2022-08-09T06:05:57.868Z,101357.09
2022-08-09T06:08:24.465Z,101362.69
2022-08-09T06:10:56.972Z,101368.16
2022-08-09T06:13:28.230Z,101365.44
2022-08-09T06:15:55.961Z,101382.28
2022-08-09T06:18:25.007Z,101384.06
2022-08-09T06:20:57.141Z,101372.19
2022-08-09T06:23:59.021Z,101373.72
2022-08-09T06:26:20.491Z,101384.13
2022-08-09T06:28:59.894Z,101383.69
2022-08-09T06:31:30.807Z,101386.19
2022-08-09T06:33:58.724Z,101388.66
2022-08-09T06:36:27.287Z,101390.88
2022-08-09T06:38:57.459Z,101396.84
2022-08-09T06:41:58.870Z,101394.00
2022-08-09T06:44:14.308Z,101391.72
2022-08-09T06:46:45.527Z,101406.78
2022-08-09T06:49:12.704Z,101406.84
2022-08-09T06:51:49.699Z,101404.28
2022-08-09T06:54:18.147Z,101405.97
2022-08-09T06:56:47.282Z,101404.72
2022-08-09T07:00:54.788Z,101413.22
2022-08-09T07:02:03.716Z,101405.38
2022-08-09T07:04:32.321Z,101422.91
2022-08-09T07:07:00.573Z,101411.19
2022-08-09T07:09:55.923Z,101423.25
2022-08-09T07:12:17.957Z,101427.81
2022-08-09T07:14:51.167Z,101418.84
2022-08-09T07:17:20.129Z,101412.06
2022-08-09T07:19:50.759Z,101418.78
2022-08-09T07:22:42.242Z,101417.03
2022-08-09T07:25:12.627Z,101424.50
2022-08-09T07:27:53.643Z,101417.97
2022-08-09T07:30:25.208Z,101414.44
2022-08-09T07:32:52.754Z,101420.59
2022-08-09T07:35:22.328Z,101412.88
2022-08-09T07:37:50.495Z,101416.66
2022-08-09T07:40:20.401Z,101424.78
2022-08-09T07:43:00.475Z,101419.91
2022-08-09T07:45:38.325Z,101411.03
2022-08-09T07:48:07.286Z,101420.59
2022-08-09T07:50:36.838Z,101423.00
2022-08-09T07:53:05.198Z,101416.41
2022-08-09T07:55:41.736Z,101420.94
2022-08-09T07:58:21.497Z,101423.81
2022-08-09T08:00:55.746Z,101410.91
2022-08-09T08:03:26.823Z,101411.19
2022-08-09T08:05:58.242Z,101413.63
2022-08-09T08:09:02.633Z,101409.25
2022-08-09T08:12:11.045Z,101421.13
2022-08-09T08:14:00.446Z,101419.34
2022-08-09T08:16:31.963Z,101416.50
2022-08-09T08:18:59.926Z,101433.72
2022-08-09T08:21:30.609Z,101432.53
2022-08-09T08:23:57.498Z,101412.72
2022-08-09T08:26:54.930Z,101423.88
2022-08-09T08:29:20.423Z,101432.00
2022-08-09T08:32:04.191Z,101439.84
2022-08-09T08:34:34.682Z,101427.72
2022-08-09T08:37:03.788Z,101419.31
2022-08-09T08:39:40.032Z,101420.50
2022-08-09T08:42:11.270Z,101423.50
2022-08-09T08:44:39.455Z,101422.78
2022-08-09T08:47:12.846Z,101421.56
2022-08-09T08:49:46.597Z,101413.75
2022-08-09T08:52:58.358Z,101425.72
2022-08-09T08:55:06.262Z,101427.47
2022-08-09T08:57:35.517Z,101429.59
2022-08-09T09:00:12.799Z,101423.34
2022-08-09T09:02:53.933Z,101416.97
2022-08-09T09:05:33.117Z,101423.44
2022-08-09T09:08:30.319Z,101423.25
2022-08-09T09:11:04.333Z,101418.38
2022-08-09T09:13:55.214Z,101416.38
2022-08-09T09:16:34.329Z,101418.31
2022-08-09T09:19:37.477Z,101409.63
2022-08-09T09:22:26.594Z,101413.56
2022-08-09T09:26:01.084Z,101417.16
2022-08-09T09:28:05.188Z,101412.78
2022-08-09T09:30:40.904Z,101414.44
2022-08-09T09:33:15.780Z,101406.81
2022-08-09T09:36:02.846Z,101400.56
2022-08-09T09:38:50.648Z,101398.72
2022-08-09T09:41:23.442Z,101390.88
2022-08-09T09:44:11.832Z,101388.31
2022-08-09T09:46:42.813Z,101377.16
2022-08-09T09:49:32.213Z,101383.44
2022-08-09T09:52:33.486Z,101378.41
2022-08-09T09:55:24.077Z,101378.88
2022-08-09T09:58:15.759Z,101369.13
2022-08-09T10:00:58.454Z,101370.63
2022-08-09T10:03:56.942Z,101367.06
2022-08-09T10:06:27.215Z,101371.66
2022-08-09T10:09:02.923Z,101365.16
2022-08-09T10:12:01.319Z,101368.38
2022-08-09T10:14:33.199Z,101366.41
2022-08-09T10:17:39.150Z,101356.38
2022-08-09T10:20:27.172Z,101353.53
2022-08-09T10:23:21.254Z,101337.50
2022-08-09T10:26:07.712Z,101340.63
2022-08-09T10:28:40.662Z,101330.09
2022-08-09T10:34:09.087Z,101326.88
2022-08-09T10:36:45.699Z,101318.63
2022-08-09T10:39:14.170Z,101313.16
2022-08-09T10:41:45.980Z,101301.25
2022-08-09T10:44:19.333Z,101307.69
2022-08-09T10:48:13.424Z,101300.41
2022-08-09T10:50:49.412Z,101281.72
2022-08-09T10:53:39.659Z,101282.75
2022-08-09T10:56:25.373Z,101282.06
2022-08-09T10:58:55.491Z,101273.72
2022-08-09T11:03:13.339Z,101250.53
2022-08-09T11:04:29.939Z,101271.34
2022-08-09T11:07:00.167Z,101270.09
2022-08-09T11:09:47.503Z,101279.00
2022-08-09T11:12:17.235Z,101281.88
2022-08-09T11:14:57.351Z,101284.47
2022-08-09T11:17:27.152Z,101295.47
2022-08-09T11:20:20.005Z,101290.00
2022-08-09T11:22:55.469Z,101303.00
2022-08-09T11:25:36.132Z,101283.91
2022-08-09T11:28:34.074Z,101290.84
2022-08-09T11:31:43.280Z,101305.78
2022-08-09T11:34:41.635Z,101296.25
2022-08-09T11:37:18.341Z,101292.84
2022-08-09T11:40:06.571Z,101296.69
2022-08-09T11:42:55.210Z,101285.44
2022-08-09T11:45:42.985Z,101286.72
2022-08-09T11:48:24.960Z,101284.06
2022-08-09T11:52:53.851Z,101278.75
2022-08-09T11:54:01.171Z,101280.50
2022-08-09T11:56:41.674Z,101279.09
2022-08-09T11:59:12.028Z,101276.63
2022-08-09T12:02:34.284Z,101278.97
2022-08-09T12:04:37.022Z,101289.09
2022-08-09T12:07:07.759Z,101277.81
2022-08-09T12:09:36.181Z,101275.47
2022-08-09T12:12:12.342Z,101266.19
2022-08-09T12:15:08.187Z,101277.09
2022-08-09T12:17:41.518Z,101273.31
2022-08-09T12:20:22.407Z,101278.38
2022-08-09T12:22:57.977Z,101265.91
2022-08-09T12:25:37.423Z,101254.78
2022-08-09T12:28:58.264Z,101265.56
2022-08-09T12:31:02.829Z,101258.06
2022-08-09T12:33:59.462Z,101274.00
2022-08-09T12:36:33.567Z,101267.91
2022-08-09T12:39:02.257Z,101279.75
2022-08-09T12:41:39.469Z,101260.53
2022-08-09T12:44:10.189Z,101276.13
2022-08-09T12:46:49.288Z,101265.81
2022-08-09T12:49:18.001Z,101269.00
2022-08-09T12:52:02.114Z,101274.59
2022-08-09T12:56:11.478Z,101268.03
2022-08-09T12:57:46.822Z,101267.50
2022-08-09T13:00:25.453Z,101253.44
2022-08-09T13:03:07.042Z,101260.97
2022-08-09T13:05:51.779Z,101239.38
2022-08-09T13:08:40.477Z,101244.75
2022-08-09T13:11:13.133Z,101255.44
2022-08-09T13:14:41.400Z,101241.59
2022-08-09T13:16:46.097Z,101241.66
2022-08-09T13:20:10.403Z,101252.44
2022-08-09T13:22:37.896Z,101256.69
2022-08-09T13:25:14.068Z,101247.56
2022-08-09T13:27:54.536Z,101240.06
2022-08-09T13:31:11.493Z,101242.00
2022-08-09T13:33:51.691Z,101245.19
2022-08-09T13:36:39.553Z,101235.22
2022-08-09T13:41:19.030Z,101241.53
2022-08-09T13:42:01.080Z,101250.19
2022-08-09T13:44:29.224Z,101234.00
2022-08-09T13:47:26.412Z,101243.28
2022-08-09T13:49:57.944Z,101234.03
2022-08-09T13:52:30.029Z,101232.25
2022-08-09T13:54:59.749Z,101231.94
2022-08-09T13:57:39.664Z,101234.16
2022-08-09T14:00:12.844Z,101233.16
2022-08-09T14:03:03.579Z,101226.56
2022-08-09T14:05:59.644Z,101220.25
2022-08-09T14:08:17.378Z,101223.03
2022-08-09T14:10:50.488Z,101222.94
2022-08-09T14:13:28.077Z,101234.53
2022-08-09T14:16:12.381Z,101224.53
2022-08-09T14:18:45.970Z,101219.28
2022-08-09T14:21:23.176Z,101224.75
2022-08-09T14:23:56.867Z,101218.19
2022-08-09T14:26:33.564Z,101230.19
2022-08-09T14:29:07.595Z,101211.03
2022-08-09T14:31:49.921Z,101219.38
2022-08-09T14:34:31.816Z,101204.56
2022-08-09T14:37:05.983Z,101200.84
2022-08-09T14:39:46.609Z,101204.63
2022-08-09T14:42:30.724Z,101200.25
2022-08-09T14:46:46.692Z,101207.75
2022-08-09T14:47:58.129Z,101207.34
2022-08-09T14:50:30.645Z,101205.72
2022-08-09T14:52:59.326Z,101203.34
2022-08-09T14:55:32.129Z,101202.56
2022-08-09T14:58:03.111Z,101212.59
2022-08-09T15:00:32.042Z,101193.59
2022-08-09T15:03:01.645Z,101195.59
2022-08-09T15:05:30.662Z,101191.59
2022-08-09T15:07:58.323Z,101194.06
2022-08-09T15:10:27.479Z,101198.97
2022-08-09T15:12:55.766Z,101206.88
2022-08-09T15:15:24.133Z,101191.38
2022-08-09T15:17:53.252Z,101189.38
2022-08-09T15:21:55.797Z,101194.66
2022-08-09T15:24:01.529Z,101185.19
2022-08-09T15:25:58.175Z,101191.38
2022-08-09T15:28:27.293Z,101187.66
2022-08-09T15:31:10.059Z,101177.56
2022-08-09T15:34:17.408Z,101180.72
2022-08-09T15:36:29.462Z,101181.19
2022-08-09T15:39:00.822Z,101176.72
2022-08-09T15:41:32.186Z,101180.84
2022-08-09T15:44:03.011Z,101179.81
2022-08-09T15:46:34.254Z,101177.22
2022-08-09T15:49:21.657Z,101189.28
2022-08-09T15:52:05.168Z,101170.50
2022-08-09T15:54:44.854Z,101177.44
2022-08-09T15:57:18.964Z,101180.53
2022-08-09T16:00:00.803Z,101169.78
2022-08-09T16:02:27.688Z,101176.09
2022-08-09T16:04:54.689Z,101164.38
2022-08-09T16:07:21.585Z,101176.47
2022-08-09T16:09:57.937Z,101175.69
2022-08-09T16:12:31.349Z,101176.13
2022-08-09T16:14:58.433Z,101182.69
2022-08-09T16:17:28.918Z,101176.09
2022-08-09T16:20:04.044Z,101168.59
2022-08-09T16:22:33.914Z,101177.09
2022-08-09T16:25:04.041Z,101173.47
2022-08-09T16:27:32.417Z,101166.03
2022-08-09T16:30:06.384Z,101168.94
2022-08-09T16:32:54.475Z,101172.25
2022-08-09T16:35:56.776Z,101166.50
2022-08-09T16:38:10.230Z,101169.28
2022-08-09T16:40:41.095Z,101193.25
2022-08-09T16:43:09.721Z,101171.53
2022-08-09T16:45:41.622Z,101172.28
2022-08-09T16:48:41.192Z,101163.97
2022-08-09T16:50:59.854Z,101172.63
2022-08-09T16:53:36.323Z,101173.13
2022-08-09T16:56:09.903Z,101170.34
2022-08-09T16:58:39.443Z,101165.75
2022-08-09T17:01:07.594Z,101160.22
2022-08-09T17:03:34.875Z,101165.19
2022-08-09T17:06:06.532Z,101160.44
2022-08-09T17:09:03.178Z,101168.16
2022-08-09T17:11:41.105Z,101168.25
2022-08-09T17:14:25.586Z,101164.03
2022-08-09T17:16:56.976Z,101161.75
2022-08-09T17:20:04.969Z,101167.94
2022-08-09T17:22:23.840Z,101174.84
2022-08-09T17:24:55.458Z,101170.97
2022-08-09T17:27:22.854Z,101175.31
2022-08-09T17:29:51.548Z,101194.59
2022-08-09T17:32:20.278Z,101189.38
2022-08-09T17:35:07.721Z,101183.69
2022-08-09T17:38:07.591Z,101180.78
2022-08-09T17:40:33.185Z,101179.88
2022-08-09T17:43:32.731Z,101178.09
2022-08-09T17:46:05.689Z,101183.34
2022-08-09T17:48:51.848Z,101187.31
2022-08-09T17:51:20.039Z,101191.06
2022-08-09T17:53:54.525Z,101194.13
2022-08-09T17:56:29.171Z,101192.41
2022-08-09T17:59:03.096Z,101197.81
2022-08-09T18:02:03.613Z,101191.00
2022-08-09T18:04:20.061Z,101194.28
2022-08-09T18:06:54.180Z,101205.53
2022-08-09T18:09:24.789Z,101198.25
2022-08-09T18:12:05.640Z,101202.72
2022-08-09T18:14:49.927Z,101197.78
2022-08-09T18:17:18.921Z,101195.69
2022-08-09T18:20:57.269Z,101192.88
2022-08-09T18:22:44.200Z,101199.94
2022-08-09T18:25:18.397Z,101194.50
2022-08-09T18:28:02.180Z,101196.78
2022-08-09T18:30:40.180Z,101195.19
2022-08-09T18:33:15.333Z,101200.06
2022-08-09T18:35:58.775Z,101199.97
2022-08-09T18:38:27.506Z,101200.69
2022-08-09T18:40:55.539Z,101194.09
2022-08-09T18:43:23.440Z,101200.97
2022-08-09T18:46:51.367Z,101188.78
2022-08-09T18:48:37.892Z,101202.88
2022-08-09T18:51:04.986Z,101205.22
2022-08-09T18:53:36.728Z,101206.66
2022-08-09T18:56:27.080Z,101209.75
2022-08-09T18:58:56.937Z,101211.25
2022-08-09T19:01:25.586Z,101208.38
2022-08-09T19:04:06.505Z,101217.91
2022-08-09T19:06:39.035Z,101220.84
2022-08-09T19:09:34.107Z,101218.38
2022-08-09T19:12:05.025Z,101223.56
2022-08-09T19:14:32.235Z,101223.47
2022-08-09T19:16:59.110Z,101231.97
2022-08-09T19:19:28.200Z,101218.97
2022-08-09T19:22:04.619Z,101222.28
2022-08-09T19:24:38.619Z,101223.34
2022-08-09T19:27:20.272Z,101234.69
2022-08-09T19:30:21.082Z,101233.66
2022-08-09T19:32:36.791Z,101236.34
2022-08-09T19:35:05.433Z,101233.84
2022-08-09T19:37:53.989Z,101234.69
2022-08-09T19:40:21.110Z,101235.47
2022-08-09T19:42:49.007Z,101241.25
2022-08-09T19:45:17.461Z,101235.06
2022-08-09T19:47:45.073Z,101236.69
2022-08-09T19:50:50.477Z,101240.81
2022-08-09T19:53:02.511Z,101242.63
2022-08-09T19:56:02.106Z,101245.53
2022-08-09T19:58:29.612Z,101249.84
2022-08-09T20:00:58.257Z,101247.56
2022-08-09T20:04:11.126Z,101246.56
2022-08-09T20:06:23.820Z,101245.94
2022-08-09T20:08:57.653Z,101246.53
2022-08-09T20:11:33.729Z,101252.28
2022-08-09T20:14:10.614Z,101254.97
2022-08-09T20:16:53.588Z,101264.22
2022-08-09T20:19:49.394Z,101260.75
2022-08-09T20:22:10.260Z,101269.63
2022-08-09T20:24:42.234Z,101258.72
2022-08-09T20:27:09.154Z,101263.84
2022-08-09T20:29:39.537Z,101253.09
2022-08-09T20:32:31.302Z,101261.53
2022-08-09T20:34:56.921Z,101263.31
2022-08-09T20:37:24.125Z,101269.06
2022-08-09T20:40:17.485Z,101271.53
2022-08-09T20:42:38.360Z,101265.94
2022-08-09T20:45:59.195Z,101268.22
2022-08-09T20:47:55.063Z,101270.44
2022-08-09T20:50:47.704Z,101270.25
2022-08-09T20:53:18.635Z,101268.56
2022-08-09T20:56:02.002Z,101278.06
2022-08-09T20:58:32.769Z,101270.81
2022-08-09T21:01:32.369Z,101275.59
2022-08-09T21:04:35.599Z,101272.66
2022-08-09T21:06:41.380Z,101274.72
2022-08-09T21:09:13.602Z,101270.97
2022-08-09T21:14:30.777Z,101274.66
2022-08-09T21:16:59.389Z,101277.56
2022-08-09T21:20:18.243Z,101279.16
2022-08-09T21:22:38.333Z,101280.47
2022-08-09T21:25:20.609Z,101285.56
2022-08-09T21:27:51.538Z,101284.94
2022-08-09T21:30:22.487Z,101284.94
2022-08-09T21:32:51.030Z,101286.13
2022-08-09T21:35:18.250Z,101280.75
2022-08-09T21:37:59.965Z,101283.38
2022-08-09T21:40:30.218Z,101284.03
2022-08-09T21:42:59.770Z,101283.16
2022-08-09T21:45:28.504Z,101289.19
2022-08-09T21:47:58.417Z,101281.41
2022-08-09T21:50:35.836Z,101288.66
2022-08-09T21:53:19.817Z,101298.22
2022-08-09T21:55:54.683Z,101290.59
2022-08-09T21:58:21.581Z,101292.38
2022-08-09T22:00:58.499Z,101287.44
2022-08-09T22:03:26.175Z,101283.72
2022-08-09T22:05:55.202Z,101291.88
2022-08-09T22:08:27.843Z,101294.19
2022-08-09T22:11:05.175Z,101290.00
2022-08-09T22:13:43.975Z,101293.16
2022-08-09T22:16:11.875Z,101287.53
2022-08-09T22:18:54.457Z,101283.94
2022-08-09T22:21:49.779Z,101289.88
2022-08-09T22:24:17.328Z,101288.16
2022-08-09T22:26:51.457Z,101288.59
2022-08-09T22:29:19.829Z,101290.56
2022-08-09T22:31:56.346Z,101298.13
2022-08-09T22:34:26.835Z,101294.19
2022-08-09T22:36:55.788Z,101302.00
2022-08-09T22:39:55.423Z,101300.72
2022-08-09T22:42:22.242Z,101305.88
2022-08-09T22:48:04.771Z,101304.31
2022-08-09T22:48:29.662Z,101296.94
2022-08-09T22:50:31.875Z,101296.44
2022-08-09T22:53:03.546Z,101297.63
2022-08-09T22:56:07.819Z,101304.94
2022-08-09T22:58:20.212Z,101298.06
2022-08-09T23:01:05.501Z,101298.63
2022-08-09T23:04:03.908Z,101300.47
2022-08-09T23:06:32.759Z,101306.72
2022-08-09T23:09:06.735Z,101310.16
2022-08-09T23:11:33.814Z,101297.44
2022-08-09T23:14:02.394Z,101300.94
2022-08-09T23:16:29.332Z,101306.09
2022-08-09T23:18:56.266Z,101293.31
2022-08-09T23:21:26.021Z,101295.69
2022-08-09T23:24:06.582Z,101285.78
2022-08-09T23:26:38.358Z,101283.91
2022-08-09T23:29:07.624Z,101283.91
2022-08-09T23:31:34.606Z,101282.81
2022-08-09T23:34:02.552Z,101280.59
2022-08-09T23:36:30.982Z,101274.28
2022-08-09T23:38:57.999Z,101285.94
2022-08-09T23:41:28.925Z,101281.34
2022-08-09T23:43:59.108Z,101288.81
2022-08-09T23:46:27.309Z,101288.53
2022-08-09T23:48:54.346Z,101288.16
2022-08-09T23:51:21.297Z,101294.22
2022-08-09T23:53:50.386Z,101287.59
2022-08-09T23:56:17.596Z,101291.28
2022-08-09T23:59:04.624Z,101292.94
